NOZ378 ESSA-ENTC
Flight info
| Callsign | NOZ378 |
|---|---|
| Flight time | N/A |
| Altitude | 38000 |
| Route | RESNA DCT TUDGI DCT DEXOP DCT MANKI |
| Aircraft | B738/M-SDE2E3FGHIRWXY/LB1 |
Departure
| Time | N/A |
|---|---|
| Airport | Stockholm-Arlanda Airport (ESSA) |
Arrival
| Time | 2026-05-06 15:53 |
|---|---|
| Airport | Tromsø Airport (ENTC) |
| Time | Latitude | Longitude | Altitude | Speed | Heading |
|---|---|---|---|---|---|
| 2026-05-06 15:22 | 67.54395 | 19.40857 | 37841 ft | 477 kts | 3° |
| 2026-05-06 15:23 | 67.60977 | 19.42390 | 37845 ft | 477 kts | 3° |
| 2026-05-06 15:23 | 67.67595 | 19.43941 | 37843 ft | 477 kts | 3° |
| 2026-05-06 15:24 | 67.74208 | 19.45499 | 37855 ft | 477 kts | 3° |
| 2026-05-06 15:24 | 67.80739 | 19.47050 | 37445 ft | 463 kts | 3° |
| 2026-05-06 15:24 | 67.83878 | 19.47800 | 37082 ft | 456 kts | 3° |
| 2026-05-06 15:25 | 67.87026 | 19.48552 | 36688 ft | 451 kts | 3° |
| 2026-05-06 15:25 | 67.90139 | 19.49297 | 36297 ft | 447 kts | 3° |
| 2026-05-06 15:25 | 67.93221 | 19.50036 | 35918 ft | 442 kts | 3° |
| 2026-05-06 15:25 | 67.96286 | 19.50772 | 35522 ft | 438 kts | 3° |
| 2026-05-06 15:26 | 67.99327 | 19.51504 | 35129 ft | 435 kts | 3° |
| 2026-05-06 15:26 | 68.02333 | 19.52230 | 34724 ft | 433 kts | 3° |
| 2026-05-06 15:26 | 68.05284 | 19.52945 | 34341 ft | 430 kts | 3° |
| 2026-05-06 15:26 | 68.08260 | 19.53667 | 33924 ft | 428 kts | 3° |
| 2026-05-06 15:27 | 68.11219 | 19.54388 | 33463 ft | 426 kts | 3° |
| 2026-05-06 15:27 | 68.14160 | 19.55106 | 33048 ft | 422 kts | 3° |
| 2026-05-06 15:27 | 68.17077 | 19.55820 | 32641 ft | 419 kts | 3° |
| 2026-05-06 15:27 | 68.19972 | 19.56531 | 32250 ft | 415 kts | 3° |
| 2026-05-06 15:28 | 68.22839 | 19.57237 | 31868 ft | 411 kts | 3° |
| 2026-05-06 15:28 | 68.25683 | 19.57939 | 31493 ft | 408 kts | 3° |
| 2026-05-06 15:28 | 68.28475 | 19.58630 | 31124 ft | 405 kts | 3° |
| 2026-05-06 15:28 | 68.31273 | 19.59323 | 30757 ft | 402 kts | 3° |
| 2026-05-06 15:29 | 68.34048 | 19.60014 | 30403 ft | 399 kts | 4° |
| 2026-05-06 15:29 | 68.36821 | 19.60704 | 30040 ft | 397 kts | 4° |
| 2026-05-06 15:29 | 68.39560 | 19.61387 | 29619 ft | 394 kts | 4° |
| 2026-05-06 15:29 | 68.42277 | 19.62067 | 29206 ft | 389 kts | 4° |
| 2026-05-06 15:30 | 68.44960 | 19.62740 | 28830 ft | 385 kts | 4° |
| 2026-05-06 15:30 | 68.47612 | 19.63408 | 28456 ft | 380 kts | 4° |
| 2026-05-06 15:30 | 68.50231 | 19.64068 | 28080 ft | 376 kts | 4° |
| 2026-05-06 15:30 | 68.52819 | 19.64723 | 27709 ft | 372 kts | 4° |
| 2026-05-06 15:31 | 68.55384 | 19.65372 | 27350 ft | 368 kts | 4° |
| 2026-05-06 15:31 | 68.57894 | 19.66009 | 26991 ft | 365 kts | 4° |
| 2026-05-06 15:31 | 68.60419 | 19.66651 | 26621 ft | 362 kts | 4° |
| 2026-05-06 15:32 | 68.65388 | 19.67920 | 25914 ft | 356 kts | 4° |
| 2026-05-06 15:32 | 68.67844 | 19.68549 | 25559 ft | 353 kts | 5° |
| 2026-05-06 15:32 | 68.70281 | 19.69175 | 25209 ft | 351 kts | 4° |
| 2026-05-06 15:32 | 68.72703 | 19.69798 | 24863 ft | 348 kts | 5° |
| 2026-05-06 15:33 | 68.75077 | 19.70410 | 24522 ft | 346 kts | 5° |
| 2026-05-06 15:33 | 68.77468 | 19.71028 | 24188 ft | 343 kts | 4° |
| 2026-05-06 15:33 | 68.79845 | 19.71644 | 23844 ft | 342 kts | 4° |
| 2026-05-06 15:33 | 68.82205 | 19.72256 | 23520 ft | 340 kts | 5° |
| 2026-05-06 15:34 | 68.84555 | 19.72867 | 23132 ft | 338 kts | 5° |
| 2026-05-06 15:34 | 68.86892 | 19.73476 | 22772 ft | 335 kts | 4° |
| 2026-05-06 15:34 | 68.89202 | 19.74080 | 22435 ft | 332 kts | 4° |
| 2026-05-06 15:34 | 68.91496 | 19.74681 | 22099 ft | 329 kts | 4° |
| 2026-05-06 15:35 | 68.93769 | 19.75211 | 21756 ft | 327 kts | 359° |
| 2026-05-06 15:35 | 68.95970 | 19.74052 | 21466 ft | 319 kts | 335° |
| 2026-05-06 15:35 | 68.97919 | 19.71259 | 21187 ft | 314 kts | 329° |
| 2026-05-06 15:35 | 68.99799 | 19.68214 | 20873 ft | 311 kts | 328° |
| 2026-05-06 15:36 | 69.01661 | 19.65144 | 20550 ft | 310 kts | 328° |
| 2026-05-06 15:36 | 69.03513 | 19.62105 | 20232 ft | 308 kts | 328° |
| 2026-05-06 15:36 | 69.05337 | 19.59135 | 19921 ft | 306 kts | 328° |
| 2026-05-06 15:36 | 69.07174 | 19.56154 | 19601 ft | 305 kts | 328° |
| 2026-05-06 15:37 | 69.09005 | 19.53192 | 19286 ft | 303 kts | 328° |
| 2026-05-06 15:37 | 69.10697 | 19.50458 | 19016 ft | 301 kts | 328° |
| 2026-05-06 15:37 | 69.12435 | 19.47648 | 18719 ft | 300 kts | 328° |
| 2026-05-06 15:37 | 69.14240 | 19.44723 | 18411 ft | 299 kts | 328° |
| 2026-05-06 15:38 | 69.16039 | 19.41803 | 18072 ft | 298 kts | 328° |
| 2026-05-06 15:38 | 69.17819 | 19.38891 | 17803 ft | 293 kts | 328° |
| 2026-05-06 15:38 | 69.19574 | 19.36006 | 17501 ft | 290 kts | 327° |
| 2026-05-06 15:38 | 69.21312 | 19.33146 | 17188 ft | 288 kts | 327° |
| 2026-05-06 15:39 | 69.23045 | 19.30287 | 16870 ft | 287 kts | 327° |
| 2026-05-06 15:39 | 69.24762 | 19.27451 | 16567 ft | 285 kts | 327° |
| 2026-05-06 15:39 | 69.26468 | 19.24627 | 16262 ft | 284 kts | 327° |
| 2026-05-06 15:39 | 69.28169 | 19.21808 | 15941 ft | 283 kts | 327° |
| 2026-05-06 15:40 | 69.29858 | 19.19000 | 15655 ft | 281 kts | 327° |
| 2026-05-06 15:40 | 69.31518 | 19.16237 | 15351 ft | 280 kts | 327° |
| 2026-05-06 15:40 | 69.33197 | 19.13442 | 15041 ft | 280 kts | 327° |
| 2026-05-06 15:40 | 69.34804 | 19.10759 | 14756 ft | 279 kts | 327° |
| 2026-05-06 15:41 | 69.36472 | 19.07968 | 14454 ft | 278 kts | 327° |
| 2026-05-06 15:41 | 69.38132 | 19.05187 | 14157 ft | 277 kts | 327° |
| 2026-05-06 15:41 | 69.39914 | 19.03120 | 13828 ft | 282 kts | 349° |
| 2026-05-06 15:41 | 69.41644 | 19.03208 | 13587 ft | 285 kts | 6° |
| 2026-05-06 15:42 | 69.43381 | 19.04249 | 13301 ft | 285 kts | 10° |
| 2026-05-06 15:42 | 69.45213 | 19.05510 | 12998 ft | 285 kts | 10° |
| 2026-05-06 15:42 | 69.47098 | 19.06831 | 12681 ft | 285 kts | 10° |
| 2026-05-06 15:42 | 69.49021 | 19.08171 | 12404 ft | 283 kts | 10° |
| 2026-05-06 15:43 | 69.50934 | 19.09491 | 12103 ft | 283 kts | 11° |
| 2026-05-06 15:43 | 69.52848 | 19.10802 | 11808 ft | 282 kts | 11° |
| 2026-05-06 15:43 | 69.54757 | 19.12103 | 11493 ft | 282 kts | 11° |
| 2026-05-06 15:43 | 69.56666 | 19.13401 | 11197 ft | 281 kts | 11° |
| 2026-05-06 15:44 | 69.58562 | 19.14688 | 10912 ft | 279 kts | 11° |
| 2026-05-06 15:44 | 69.60430 | 19.15956 | 10609 ft | 278 kts | 11° |
| 2026-05-06 15:44 | 69.64066 | 19.18425 | 10062 ft | 276 kts | 11° |
| 2026-05-06 15:44 | 69.71354 | 19.23399 | 9067 ft | 267 kts | 11° |
| 2026-05-06 15:45 | 69.77155 | 19.27376 | 8143 ft | 265 kts | 11° |
| 2026-05-06 15:45 | 69.78950 | 19.28611 | 7858 ft | 265 kts | 12° |
| 2026-05-06 15:45 | 69.80739 | 19.29844 | 7571 ft | 264 kts | 12° |
| 2026-05-06 15:45 | 69.82522 | 19.31075 | 7300 ft | 263 kts | 12° |
| 2026-05-06 15:46 | 69.84285 | 19.32295 | 7117 ft | 258 kts | 12° |
| 2026-05-06 15:46 | 69.86027 | 19.33497 | 6925 ft | 253 kts | 12° |
| 2026-05-06 15:46 | 69.87700 | 19.34645 | 6821 ft | 246 kts | 12° |
| 2026-05-06 15:46 | 69.89350 | 19.35579 | 6709 ft | 238 kts | 359° |
| 2026-05-06 15:47 | 69.90891 | 19.34323 | 6615 ft | 229 kts | 328° |
| 2026-05-06 15:47 | 69.91991 | 19.31043 | 6400 ft | 228 kts | 299° |
| 2026-05-06 15:47 | 69.92597 | 19.26875 | 6296 ft | 222 kts | 284° |
| 2026-05-06 15:47 | 69.92922 | 19.22542 | 6198 ft | 216 kts | 283° |
| 2026-05-06 15:48 | 69.93242 | 19.18309 | 6000 ft | 214 kts | 283° |
| 2026-05-06 15:48 | 69.93543 | 19.14076 | 5791 ft | 215 kts | 276° |
| 2026-05-06 15:48 | 69.93219 | 19.09899 | 5561 ft | 216 kts | 234° |
| 2026-05-06 15:48 | 69.91999 | 19.07420 | 5359 ft | 221 kts | 194° |
| 2026-05-06 15:49 | 69.90473 | 19.06754 | 5168 ft | 222 kts | 191° |
| 2026-05-06 15:49 | 69.88992 | 19.05739 | 5051 ft | 214 kts | 194° |
| 2026-05-06 15:49 | 69.87582 | 19.04743 | 4935 ft | 203 kts | 193° |
| 2026-05-06 15:49 | 69.86196 | 19.03816 | 4575 ft | 204 kts | 193° |
| 2026-05-06 15:50 | 69.84814 | 19.02898 | 4202 ft | 204 kts | 193° |
| 2026-05-06 15:50 | 69.83429 | 19.01972 | 3837 ft | 205 kts | 193° |
| 2026-05-06 15:50 | 69.82033 | 19.01039 | 3488 ft | 206 kts | 193° |
| 2026-05-06 15:50 | 69.80636 | 19.00105 | 3137 ft | 206 kts | 193° |
| 2026-05-06 15:51 | 69.79245 | 18.99177 | 2751 ft | 203 kts | 193° |
| 2026-05-06 15:51 | 69.77905 | 18.98282 | 2399 ft | 197 kts | 193° |
| 2026-05-06 15:51 | 69.76567 | 18.97387 | 2056 ft | 192 kts | 193° |
| 2026-05-06 15:51 | 69.75303 | 18.96543 | 1746 ft | 185 kts | 193° |
| 2026-05-06 15:52 | 69.74076 | 18.95723 | 1393 ft | 174 kts | 193° |
| 2026-05-06 15:52 | 69.72953 | 18.94973 | 1102 ft | 159 kts | 193° |
| 2026-05-06 15:52 | 69.71912 | 18.94278 | 871 ft | 147 kts | 193° |
| 2026-05-06 15:52 | 69.70929 | 18.93621 | 599 ft | 143 kts | 193° |
| 2026-05-06 15:53 | 69.69945 | 18.92959 | 249 ft | 146 kts | 194° |
| 2026-05-06 15:53 | 69.68973 | 18.92323 | 40 ft | 141 kts | 194° |
| 2026-05-06 15:53 | 69.68057 | 18.91708 | 33 ft | 108 kts | 193° |
| 2026-05-06 15:53 | 69.67574 | 18.91384 | 39 ft | 47 kts | 193° |
| 2026-05-06 15:54 | 69.67330 | 18.91219 | 38 ft | 25 kts | 196° |
| 2026-05-06 15:54 | 69.67255 | 18.91161 | 38 ft | 8 kts | 114° |
| 2026-05-06 15:54 | 69.67302 | 18.91230 | 35 ft | 10 kts | 5° |
| 2026-05-06 15:54 | 69.67381 | 18.91257 | 40 ft | 14 kts | 11° |
| 2026-05-06 15:55 | 69.67498 | 18.91331 | 39 ft | 19 kts | 12° |
| 2026-05-06 15:55 | 69.67616 | 18.91347 | 38 ft | 12 kts | 313° |
| 2026-05-06 15:55 | 69.67639 | 18.91114 | 34 ft | 12 kts | 300° |
| 2026-05-06 15:55 | 69.67715 | 18.91090 | 37 ft | 12 kts | 14° |
| 2026-05-06 15:56 | 69.67794 | 18.91144 | 36 ft | 11 kts | 13° |
| 2026-05-06 15:56 | 69.67870 | 18.91193 | 36 ft | 11 kts | 11° |
| 2026-05-06 15:56 | 69.67945 | 18.91239 | 35 ft | 11 kts | 14° |
| 2026-05-06 15:56 | 69.68018 | 18.91290 | 35 ft | 11 kts | 14° |
| 2026-05-06 15:57 | 69.68066 | 18.91246 | 34 ft | 8 kts | 288° |
| 2026-05-06 15:57 | 69.68077 | 18.91109 | 34 ft | 7 kts | 283° |
| 2026-05-06 15:57 | 69.68084 | 18.91028 | 34 ft | 2 kts | 283° |
| 2026-05-06 15:57 | 69.68086 | 18.90997 | 33 ft | 1 kts | 283° |
| 2026-05-06 15:58 | 69.68088 | 18.90979 | 33 ft | 0 kts | 283° |